Time;durP1;ratioP1;P1;durP2;ratioP2;P2;SDS_P1;SDS_P2;PMS_P1;PMS_P2;Temp;Humidity;BMP_temperature;BMP_pressure;BME280_temperature;BME280_humidity;BME280_pressure;Samples;Min_cycle;Max_cycle;Signal;HPM_P1;HPM_P2
2023/04/18 00:00:39;;;;;;;7.00;4.70;;;;;;;;;;107598;284;39470;-29
2023/04/18 00:03:21;;;;;;;6.40;4.80;;;;;;;;;;107624;285;43844;-29
2023/04/18 00:05:55;;;;;;;6.50;4.90;;;;;;;;;;107619;285;43199;-29
2023/04/18 00:08:31;;;;;;;7.00;5.00;;;;;;;;;;107605;285;38773;-29
2023/04/18 00:11:07;;;;;;;6.80;4.70;;;;;;;;;;107615;283;39699;-29
2023/04/18 00:13:42;;;;;;;6.40;5.00;;;;;;;;;;107487;283;175646;-30
2023/04/18 00:16:16;;;;;;;7.00;4.90;;;;;;;;;;107571;286;42180;-29
2023/04/18 00:18:50;;;;;;;6.50;4.60;;;;;;;;;;107620;277;38932;-29
2023/04/18 00:21:25;;;;;;;6.90;4.70;;;;;;;;;;107616;285;39947;-30
2023/04/18 00:24:00;;;;;;;6.40;5.00;;;;;;;;;;107497;286;175720;-29
2023/04/18 00:26:33;;;;;;;6.70;5.10;;;;;;;;;;107546;285;41913;-29
2023/04/18 00:29:08;;;;;;;6.50;4.90;;;;;;;;;;107609;283;39953;-29
2023/04/18 00:31:41;;;;;;;7.00;5.10;;;;;;;;;;107620;285;39717;-29
2023/04/18 00:34:20;;;;;;;6.50;4.90;;;;;;;;;;107631;283;42850;-29
2023/04/18 00:36:55;;;;;;;6.50;4.60;;;;;;;;;;107579;285;41855;-29
2023/04/18 00:39:31;;;;;;;6.70;4.70;;;;;;;;;;107639;285;38774;-29
2023/04/18 00:42:06;;;;;;;6.70;5.00;;;;;;;;;;107656;277;40442;-30
2023/04/18 00:44:41;;;;;;;7.10;5.10;;;;;;;;;;107649;285;42897;-30
2023/04/18 00:47:17;;;;;;;6.20;4.40;;;;;;;;;;107577;285;42252;-30
2023/04/18 00:49:53;;;;;;;7.00;4.90;;;;;;;;;;107628;283;39957;-30
2023/04/18 00:52:29;;;;;;;6.40;4.80;;;;;;;;;;107612;282;40189;-29
2023/04/18 00:55:03;;;;;;;6.50;4.90;;;;;;;;;;107611;283;43372;-29
2023/04/18 00:57:38;;;;;;;6.60;4.80;;;;;;;;;;107596;283;42167;-29
2023/04/18 01:00:16;;;;;;;6.50;4.80;;;;;;;;;;107622;283;39110;-29
2023/04/18 01:02:51;;;;;;;6.40;4.50;;;;;;;;;;107648;285;40722;-29
2023/04/18 01:05:27;;;;;;;6.90;5.00;;;;;;;;;;107639;285;42903;-29
2023/04/18 01:08:04;;;;;;;6.50;4.80;;;;;;;;;;107587;285;47850;-30
2023/04/18 01:10:39;;;;;;;6.60;5.10;;;;;;;;;;107630;285;38825;-29
2023/04/18 01:13:19;;;;;;;6.50;4.70;;;;;;;;;;107638;283;39492;-30
2023/04/18 01:15:53;;;;;;;6.40;4.70;;;;;;;;;;107626;284;43093;-30
2023/04/18 01:18:30;;;;;;;6.40;4.60;;;;;;;;;;107615;286;48476;-30
2023/04/18 01:21:05;;;;;;;7.20;5.00;;;;;;;;;;107645;283;38550;-30
2023/04/18 01:23:40;;;;;;;6.50;4.80;;;;;;;;;;107621;283;40489;-30
2023/04/18 01:26:15;;;;;;;6.80;4.80;;;;;;;;;;106936;285;894366;-29
2023/04/18 01:28:50;;;;;;;6.60;5.10;;;;;;;;;;107602;283;48350;-29
2023/04/18 01:31:27;;;;;;;6.90;5.00;;;;;;;;;;107616;285;39154;-30
2023/04/18 01:34:04;;;;;;;6.00;4.70;;;;;;;;;;107638;283;39639;-30
2023/04/18 01:36:40;;;;;;;6.40;4.70;;;;;;;;;;107601;281;44082;-30
2023/04/18 01:39:17;;;;;;;6.30;5.00;;;;;;;;;;107204;283;511737;-30
2023/04/18 01:41:50;;;;;;;6.30;4.90;;;;;;;;;;107567;285;38555;-30
2023/04/18 01:44:25;;;;;;;6.50;4.60;;;;;;;;;;107615;277;39724;-30
2023/04/18 01:47:01;;;;;;;6.80;4.80;;;;;;;;;;107592;285;43006;-30
2023/04/18 01:49:37;;;;;;;6.10;4.50;;;;;;;;;;107619;283;42586;-30
2023/04/18 01:52:12;;;;;;;6.40;4.60;;;;;;;;;;107637;285;40000;-30
2023/04/18 01:54:49;;;;;;;6.00;4.50;;;;;;;;;;107630;285;39740;-30
2023/04/18 01:57:23;;;;;;;6.20;4.50;;;;;;;;;;107601;285;43017;-30
2023/04/18 01:59:56;;;;;;;6.30;4.50;;;;;;;;;;107585;277;42498;-30
2023/04/18 02:02:33;;;;;;;6.10;4.40;;;;;;;;;;107626;285;38836;-30
2023/04/18 02:05:09;;;;;;;6.10;4.50;;;;;;;;;;107639;283;39708;-30
2023/04/18 02:07:44;;;;;;;5.90;4.60;;;;;;;;;;107590;285;43983;-30
2023/04/18 02:10:21;;;;;;;6.10;4.20;;;;;;;;;;107638;285;43310;-30
2023/04/18 02:12:56;;;;;;;5.90;4.30;;;;;;;;;;107653;285;39852;-30
2023/04/18 02:15:31;;;;;;;6.30;4.60;;;;;;;;;;107620;282;40772;-30
2023/04/18 02:18:06;;;;;;;6.10;4.40;;;;;;;;;;107618;283;42742;-30
2023/04/18 02:20:40;;;;;;;6.20;4.50;;;;;;;;;;107626;283;42465;-29
2023/04/18 02:23:16;;;;;;;6.00;4.40;;;;;;;;;;107645;285;38754;-29
2023/04/18 02:25:52;;;;;;;5.90;4.50;;;;;;;;;;107634;285;39964;-29
2023/04/18 02:28:26;;;;;;;5.90;4.50;;;;;;;;;;107606;285;42953;-29
2023/04/18 02:31:05;;;;;;;5.60;4.20;;;;;;;;;;107615;277;42164;-29
2023/04/18 02:33:38;;;;;;;6.00;4.70;;;;;;;;;;107639;285;38770;-29
2023/04/18 02:36:13;;;;;;;5.70;4.10;;;;;;;;;;107661;283;39864;-30
2023/04/18 02:38:51;;;;;;;6.20;4.50;;;;;;;;;;107626;285;42898;-30
2023/04/18 02:41:26;;;;;;;6.10;4.40;;;;;;;;;;107601;285;42186;-30
2023/04/18 02:44:00;;;;;;;5.60;4.20;;;;;;;;;;107643;283;39049;-30
2023/04/18 02:46:34;;;;;;;6.00;4.30;;;;;;;;;;107645;283;39886;-29
2023/04/18 02:49:11;;;;;;;5.90;4.40;;;;;;;;;;107613;285;43160;-29
2023/04/18 02:51:47;;;;;;;5.80;4.40;;;;;;;;;;107610;285;42221;-29
2023/04/18 02:54:24;;;;;;;5.70;4.20;;;;;;;;;;107623;277;38881;-29
2023/04/18 02:57:00;;;;;;;5.60;4.10;;;;;;;;;;107657;285;39860;-29
2023/04/18 02:59:34;;;;;;;6.00;4.30;;;;;;;;;;107594;285;42889;-29
2023/04/18 03:02:10;;;;;;;6.10;4.50;;;;;;;;;;107623;285;42149;-29
2023/04/18 03:04:49;;;;;;;5.80;4.40;;;;;;;;;;107603;289;38760;-29
2023/04/18 03:07:24;;;;;;;5.70;4.00;;;;;;;;;;107635;285;39701;-29
2023/04/18 03:10:00;;;;;;;6.10;4.10;;;;;;;;;;107584;282;42876;-29
2023/04/18 03:12:34;;;;;;;5.70;4.10;;;;;;;;;;107595;282;42147;-29
2023/04/18 03:15:12;;;;;;;5.80;4.20;;;;;;;;;;107616;285;38857;-29
2023/04/18 03:17:47;;;;;;;6.30;4.50;;;;;;;;;;107640;285;39861;-29
2023/04/18 03:20:27;;;;;;;6.80;4.70;;;;;;;;;;107610;283;42618;-29
2023/04/18 03:23:03;;;;;;;6.30;4.10;;;;;;;;;;107535;283;42098;-29
2023/04/18 03:25:39;;;;;;;6.40;4.50;;;;;;;;;;107616;285;38907;-29
2023/04/18 03:28:13;;;;;;;6.30;4.30;;;;;;;;;;107524;282;175765;-29
2023/04/18 03:30:49;;;;;;;6.20;4.20;;;;;;;;;;107591;282;45429;-29
2023/04/18 03:33:23;;;;;;;7.50;4.50;;;;;;;;;;107622;285;42151;-29
2023/04/18 03:35:56;;;;;;;7.00;4.60;;;;;;;;;;107647;285;38819;-29
2023/04/18 03:38:31;;;;;;;6.00;4.10;;;;;;;;;;107494;284;39855;-29
2023/04/18 03:41:06;;;;;;;6.40;4.50;;;;;;;;;;107459;285;175749;-29
2023/04/18 03:43:42;;;;;;;7.00;4.20;;;;;;;;;;107621;285;42062;-29
2023/04/18 03:46:15;;;;;;;6.20;4.30;;;;;;;;;;107626;282;38793;-29
2023/04/18 03:48:49;;;;;;;6.50;4.60;;;;;;;;;;107604;285;39921;-29
2023/04/18 03:51:23;;;;;;;6.70;4.40;;;;;;;;;;107575;283;44091;-29
2023/04/18 03:53:57;;;;;;;5.80;4.30;;;;;;;;;;107623;285;42168;-29
2023/04/18 03:56:32;;;;;;;6.10;4.40;;;;;;;;;;107639;285;39783;-29
2023/04/18 03:59:05;;;;;;;6.40;4.10;;;;;;;;;;107600;285;39822;-29
2023/04/18 04:02:23;;;;;;;6.40;4.40;;;;;;;;;;107581;285;50025;-29
2023/04/18 04:04:59;;;;;;;6.60;4.40;;;;;;;;;;107621;285;42178;-29
2023/04/18 04:07:35;;;;;;;6.20;4.20;;;;;;;;;;107640;277;38594;-29
2023/04/18 04:10:11;;;;;;;6.00;4.20;;;;;;;;;;107620;285;41925;-29
2023/04/18 04:12:47;;;;;;;7.00;4.50;;;;;;;;;;107638;282;44066;-29
2023/04/18 04:15:21;;;;;;;6.00;4.30;;;;;;;;;;107628;285;42278;-29
2023/04/18 04:17:57;;;;;;;6.00;4.00;;;;;;;;;;107611;283;39940;-29
2023/04/18 04:20:34;;;;;;;5.70;4.00;;;;;;;;;;107620;285;41002;-29
2023/04/18 04:23:10;;;;;;;5.90;4.00;;;;;;;;;;107583;285;45180;-29
2023/04/18 04:25:45;;;;;;;5.90;3.80;;;;;;;;;;107618;285;41885;-29
2023/04/18 04:28:21;;;;;;;5.90;4.00;;;;;;;;;;107641;285;39981;-29
2023/04/18 04:30:56;;;;;;;5.50;3.60;;;;;;;;;;107571;285;40031;-29
2023/04/18 04:33:32;;;;;;;6.70;4.10;;;;;;;;;;107639;285;44100;-29
2023/04/18 04:36:07;;;;;;;5.50;3.90;;;;;;;;;;107638;283;42235;-29
2023/04/18 04:38:43;;;;;;;5.70;3.80;;;;;;;;;;107707;285;38752;-29
2023/04/18 04:41:18;;;;;;;6.10;3.90;;;;;;;;;;107605;285;39708;-29
2023/04/18 04:43:54;;;;;;;6.00;4.20;;;;;;;;;;107634;285;42884;-29
2023/04/18 04:46:29;;;;;;;6.00;4.10;;;;;;;;;;107634;281;43363;-29
2023/04/18 04:49:03;;;;;;;5.80;3.70;;;;;;;;;;107632;283;38851;-29
2023/04/18 04:51:39;;;;;;;5.80;3.90;;;;;;;;;;107585;283;39883;-29
2023/04/18 04:54:12;;;;;;;6.00;4.20;;;;;;;;;;107618;283;44009;-29
2023/04/18 04:56:47;;;;;;;6.20;4.10;;;;;;;;;;107610;285;43350;-29
2023/04/18 04:59:23;;;;;;;5.80;3.80;;;;;;;;;;107617;283;39808;-29
2023/04/18 05:01:58;;;;;;;5.60;3.90;;;;;;;;;;107482;285;175649;-29
2023/04/18 05:04:34;;;;;;;5.70;4.00;;;;;;;;;;107632;285;43995;-29
2023/04/18 05:07:09;;;;;;;6.50;4.10;;;;;;;;;;107614;285;42185;-29
2023/04/18 05:09:44;;;;;;;6.00;4.20;;;;;;;;;;107646;284;38943;-29
2023/04/18 05:12:21;;;;;;;6.70;4.20;;;;;;;;;;107579;290;39697;-29
2023/04/18 05:14:56;;;;;;;6.90;3.90;;;;;;;;;;107486;285;175697;-29
2023/04/18 05:17:30;;;;;;;5.60;3.90;;;;;;;;;;107603;285;42141;-29
2023/04/18 05:20:06;;;;;;;6.20;4.10;;;;;;;;;;107628;285;39891;-29
2023/04/18 05:22:40;;;;;;;5.40;3.80;;;;;;;;;;106960;285;894014;-29
2023/04/18 05:25:17;;;;;;;6.30;4.20;;;;;;;;;;107644;283;42859;-29
2023/04/18 05:27:51;;;;;;;6.00;4.10;;;;;;;;;;107622;285;43468;-29
2023/04/18 05:30:26;;;;;;;6.50;4.00;;;;;;;;;;107628;282;38800;-29
2023/04/18 05:33:02;;;;;;;6.40;4.20;;;;;;;;;;107612;283;40039;-29
2023/04/18 05:35:38;;;;;;;6.10;4.20;;;;;;;;;;107600;283;45134;-29
2023/04/18 05:38:13;;;;;;;6.50;4.30;;;;;;;;;;107607;282;42170;-29
2023/04/18 05:40:49;;;;;;;6.60;4.00;;;;;;;;;;107588;282;38979;-29
2023/04/18 05:43:25;;;;;;;6.10;4.10;;;;;;;;;;107576;277;39745;-29
2023/04/18 05:46:00;;;;;;;6.90;4.30;;;;;;;;;;107637;285;45167;-29
2023/04/18 05:48:38;;;;;;;6.90;4.50;;;;;;;;;;107510;285;175681;-29
2023/04/18 05:51:12;;;;;;;5.90;4.30;;;;;;;;;;107633;285;38900;-29
2023/04/18 05:53:48;;;;;;;6.30;4.20;;;;;;;;;;107564;285;39723;-29
2023/04/18 05:56:23;;;;;;;6.30;4.50;;;;;;;;;;107603;285;42990;-29
2023/04/18 05:58:59;;;;;;;6.30;4.50;;;;;;;;;;107524;285;175656;-29
2023/04/18 06:01:36;;;;;;;6.30;4.20;;;;;;;;;;107626;283;40812;-29
2023/04/18 06:04:14;;;;;;;6.00;4.10;;;;;;;;;;107603;283;45575;-29
2023/04/18 06:06:51;;;;;;;5.60;4.00;;;;;;;;;;107662;285;43011;-29
2023/04/18 06:09:29;;;;;;;6.60;4.50;;;;;;;;;;107647;283;42261;-29
2023/04/18 06:12:05;;;;;;;6.30;4.40;;;;;;;;;;107596;284;40026;-29
2023/04/18 06:14:42;;;;;;;6.10;4.20;;;;;;;;;;107625;277;45767;-29
2023/04/18 06:17:18;;;;;;;5.70;3.90;;;;;;;;;;107630;283;42848;-29
2023/04/18 06:19:52;;;;;;;6.00;4.10;;;;;;;;;;107627;277;42153;-29
2023/04/18 06:22:27;;;;;;;5.90;4.10;;;;;;;;;;107616;277;38962;-29
2023/04/18 06:25:01;;;;;;;6.90;4.70;;;;;;;;;;107619;286;40959;-29
2023/04/18 06:27:35;;;;;;;6.40;4.30;;;;;;;;;;107612;285;43065;-29
2023/04/18 06:30:11;;;;;;;5.90;4.20;;;;;;;;;;107634;283;42154;-29
2023/04/18 06:32:48;;;;;;;6.20;4.30;;;;;;;;;;107623;285;38779;-29
2023/04/18 06:35:22;;;;;;;5.80;4.10;;;;;;;;;;106977;285;892759;-29
2023/04/18 06:37:59;;;;;;;5.70;4.20;;;;;;;;;;107602;283;42686;-29
2023/04/18 06:40:33;;;;;;;5.80;4.20;;;;;;;;;;107658;285;42251;-29
2023/04/18 06:43:08;;;;;;;6.00;4.30;;;;;;;;;;107582;285;39894;-29
2023/04/18 06:45:44;;;;;;;6.00;4.30;;;;;;;;;;107624;284;40811;-29
2023/04/18 06:48:20;;;;;;;5.90;4.40;;;;;;;;;;107601;285;44285;-29
2023/04/18 06:50:56;;;;;;;5.50;4.20;;;;;;;;;;107598;277;43432;-29
2023/04/18 06:53:31;;;;;;;6.50;4.30;;;;;;;;;;107590;283;39695;-29
2023/04/18 06:56:09;;;;;;;5.90;4.20;;;;;;;;;;107620;282;39900;-29
2023/04/18 06:58:44;;;;;;;5.70;4.30;;;;;;;;;;107661;286;44134;-29
2023/04/18 07:01:20;;;;;;;6.10;4.30;;;;;;;;;;107619;285;42190;-29
2023/04/18 07:03:55;;;;;;;6.40;4.50;;;;;;;;;;107599;283;40029;-29
2023/04/18 07:06:29;;;;;;;6.00;4.30;;;;;;;;;;107640;285;39732;-29
2023/04/18 07:09:05;;;;;;;6.20;4.30;;;;;;;;;;107643;283;43030;-29
2023/04/18 07:11:40;;;;;;;5.70;4.30;;;;;;;;;;107621;284;42294;-29
2023/04/18 07:14:14;;;;;;;6.60;4.80;;;;;;;;;;107618;285;38909;-29
2023/04/18 07:16:48;;;;;;;6.90;4.70;;;;;;;;;;107597;284;39858;-29
2023/04/18 07:19:22;;;;;;;6.00;4.50;;;;;;;;;;107637;285;43246;-29
2023/04/18 07:21:58;;;;;;;6.50;4.80;;;;;;;;;;107636;285;42165;-29
2023/04/18 07:24:33;;;;;;;6.30;4.30;;;;;;;;;;107567;285;38792;-29
2023/04/18 07:27:09;;;;;;;6.40;4.70;;;;;;;;;;107664;282;39882;-29
2023/04/18 07:29:43;;;;;;;6.60;4.80;;;;;;;;;;107625;285;42866;-29
2023/04/18 07:32:17;;;;;;;5.90;4.30;;;;;;;;;;107637;285;42166;-29
2023/04/18 07:34:52;;;;;;;6.20;4.30;;;;;;;;;;107577;285;38776;-29
2023/04/18 07:37:26;;;;;;;6.40;4.60;;;;;;;;;;107631;282;39894;-29
2023/04/18 07:40:04;;;;;;;6.30;4.50;;;;;;;;;;107597;285;42923;-29
2023/04/18 07:42:42;;;;;;;6.40;4.30;;;;;;;;;;107620;281;42182;-29
2023/04/18 07:45:16;;;;;;;6.20;4.60;;;;;;;;;;107609;283;38871;-29
2023/04/18 07:47:51;;;;;;;6.30;4.50;;;;;;;;;;107612;285;40989;-29
2023/04/18 07:50:25;;;;;;;6.50;4.40;;;;;;;;;;107544;286;44468;-29
2023/04/18 07:53:00;;;;;;;6.50;4.50;;;;;;;;;;107619;285;43505;-29
2023/04/18 07:55:34;;;;;;;6.20;4.30;;;;;;;;;;107591;281;38775;-29
2023/04/18 07:58:08;;;;;;;6.30;4.40;;;;;;;;;;107631;285;40051;-30
2023/04/18 08:00:43;;;;;;;6.60;4.50;;;;;;;;;;107628;285;44189;-30
2023/04/18 08:03:19;;;;;;;8.40;5.40;;;;;;;;;;107622;285;42143;-29
2023/04/18 08:05:55;;;;;;;8.60;5.60;;;;;;;;;;107493;285;192769;-29
2023/04/18 08:08:29;;;;;;;8.50;5.50;;;;;;;;;;107651;285;39819;-29
2023/04/18 08:11:05;;;;;;;8.90;5.40;;;;;;;;;;107628;285;42898;-29
2023/04/18 08:13:39;;;;;;;8.90;5.40;;;;;;;;;;107639;282;42625;-29
2023/04/18 08:16:13;;;;;;;9.20;5.80;;;;;;;;;;107584;285;38871;-29
2023/04/18 08:18:51;;;;;;;8.80;5.60;;;;;;;;;;107613;285;39831;-29
2023/04/18 08:21:26;;;;;;;9.10;5.90;;;;;;;;;;107491;283;175681;-29
2023/04/18 08:23:59;;;;;;;9.40;5.60;;;;;;;;;;107615;283;42628;-29
2023/04/18 08:26:35;;;;;;;8.10;5.30;;;;;;;;;;107613;285;38818;-29
2023/04/18 08:29:14;;;;;;;8.60;5.60;;;;;;;;;;107674;285;39758;-30
2023/04/18 08:31:48;;;;;;;8.50;5.10;;;;;;;;;;107695;282;43906;-31
2023/04/18 08:34:22;;;;;;;7.50;5.10;;;;;;;;;;107691;285;42242;-31
2023/04/18 08:36:59;;;;;;;7.70;5.30;;;;;;;;;;107647;285;40028;-31
2023/04/18 08:39:35;;;;;;;8.00;5.50;;;;;;;;;;107718;282;40188;-31
2023/04/18 08:42:10;;;;;;;8.40;5.90;;;;;;;;;;107704;285;43014;-31
2023/04/18 08:44:46;;;;;;;8.00;5.20;;;;;;;;;;107779;283;43330;-31
2023/04/18 08:47:20;;;;;;;7.60;5.10;;;;;;;;;;107645;283;38838;-31
2023/04/18 08:49:57;;;;;;;7.60;5.30;;;;;;;;;;107663;285;39732;-31
2023/04/18 08:52:37;;;;;;;8.70;5.30;;;;;;;;;;107654;285;43036;-31
2023/04/18 08:55:12;;;;;;;7.80;5.20;;;;;;;;;;107595;283;175283;-30
2023/04/18 08:57:52;;;;;;;8.50;5.40;;;;;;;;;;107775;283;45016;-30
2023/04/18 09:00:28;;;;;;;7.10;5.10;;;;;;;;;;107711;283;40758;-29
2023/04/18 09:03:03;;;;;;;7.20;5.10;;;;;;;;;;107736;275;42852;-28
2023/04/18 09:05:45;;;;;;;8.40;5.00;;;;;;;;;;107710;275;42201;-30
2023/04/18 09:08:26;;;;;;;7.10;4.90;;;;;;;;;;107706;283;45113;-29
2023/04/18 09:11:30;;;;;;;9.00;5.40;;;;;;;;;;107692;283;39946;-29
2023/04/18 09:14:06;;;;;;;7.50;5.20;;;;;;;;;;107663;284;42897;-29
2023/04/18 09:16:49;;;;;;;6.90;4.70;;;;;;;;;;107584;276;42160;-29
2023/04/18 09:19:24;;;;;;;7.50;4.80;;;;;;;;;;107662;284;41036;-29
2023/04/18 09:22:08;;;;;;;6.80;4.70;;;;;;;;;;107623;282;39777;-29
2023/04/18 09:24:54;;;;;;;8.50;5.10;;;;;;;;;;107639;276;43870;-29
2023/04/18 09:27:29;;;;;;;7.70;5.00;;;;;;;;;;107628;284;42149;-29
2023/04/18 09:30:05;;;;;;;7.80;5.10;;;;;;;;;;107690;283;38986;-29
2023/04/18 09:32:38;;;;;;;7.20;5.10;;;;;;;;;;107704;284;39735;-29
2023/04/18 09:35:26;;;;;;;7.20;5.20;;;;;;;;;;107656;283;43001;-30
2023/04/18 09:38:02;;;;;;;7.20;5.20;;;;;;;;;;107498;284;175631;-30
2023/04/18 09:40:40;;;;;;;7.20;4.90;;;;;;;;;;107219;277;528393;-30
2023/04/18 09:43:22;;;;;;;6.70;4.60;;;;;;;;;;107688;283;39711;-30
2023/04/18 09:45:59;;;;;;;7.50;4.90;;;;;;;;;;107687;275;42894;-29
2023/04/18 09:48:35;;;;;;;6.80;4.50;;;;;;;;;;107664;275;42243;-30
2023/04/18 09:51:11;;;;;;;6.50;4.40;;;;;;;;;;107659;275;38895;-29
2023/04/18 09:53:46;;;;;;;7.10;4.80;;;;;;;;;;107702;275;39794;-29
2023/04/18 09:56:27;;;;;;;7.50;4.90;;;;;;;;;;107712;275;42936;-29
2023/04/18 09:59:09;;;;;;;6.90;4.50;;;;;;;;;;107666;281;42124;-30
2023/04/18 10:01:47;;;;;;;7.30;4.70;;;;;;;;;;107679;275;39148;-30
2023/04/18 10:04:24;;;;;;;7.80;4.70;;;;;;;;;;107679;275;39790;-30
2023/04/18 10:06:59;;;;;;;6.60;4.50;;;;;;;;;;107692;275;43934;-30
2023/04/18 10:09:38;;;;;;;7.90;5.00;;;;;;;;;;107695;281;49754;-30
2023/04/18 10:12:16;;;;;;;7.40;4.50;;;;;;;;;;107733;283;38803;-30
2023/04/18 10:14:50;;;;;;;6.80;4.60;;;;;;;;;;107694;275;42157;-30
2023/04/18 10:17:24;;;;;;;6.60;4.70;;;;;;;;;;107601;277;42987;-30
2023/04/18 10:20:16;;;;;;;6.30;4.50;;;;;;;;;;107622;283;42205;-30
2023/04/18 10:22:54;;;;;;;7.20;4.70;;;;;;;;;;107626;283;39305;-30
2023/04/18 10:25:51;;;;;;;6.70;4.40;;;;;;;;;;107619;283;40138;-30
2023/04/18 10:28:27;;;;;;;6.50;4.60;;;;;;;;;;107591;276;45018;-30
2023/04/18 10:31:04;;;;;;;6.90;4.80;;;;;;;;;;107613;284;42316;-30
2023/04/18 10:33:42;;;;;;;6.70;4.80;;;;;;;;;;107636;283;38785;-30
2023/04/18 10:36:22;;;;;;;6.60;4.80;;;;;;;;;;107517;283;40400;-30
2023/04/18 10:39:03;;;;;;;6.50;4.60;;;;;;;;;;107510;276;42891;-30
2023/04/18 10:41:50;;;;;;;6.50;4.80;;;;;;;;;;107088;276;893640;-30
2023/04/18 10:44:27;;;;;;;6.30;4.30;;;;;;;;;;107487;276;174589;-30
2023/04/18 10:47:23;;;;;;;6.10;4.50;;;;;;;;;;107603;284;39754;-27
2023/04/18 10:50:00;;;;;;;6.50;4.70;;;;;;;;;;107621;277;43231;-27
2023/04/18 10:52:35;;;;;;;6.50;4.80;;;;;;;;;;107551;286;42244;-28
2023/04/18 10:55:18;;;;;;;6.70;4.80;;;;;;;;;;107545;277;39007;-30
2023/04/18 10:57:56;;;;;;;6.90;4.90;;;;;;;;;;107589;282;39846;-30
2023/04/18 11:00:33;;;;;;;6.30;4.50;;;;;;;;;;107673;282;49695;-30
2023/04/18 11:03:09;;;;;;;7.20;4.50;;;;;;;;;;107603;282;42797;-30
2023/04/18 11:05:43;;;;;;;6.50;4.70;;;;;;;;;;107570;282;38940;-30
2023/04/18 11:08:28;;;;;;;7.00;5.00;;;;;;;;;;107616;277;39849;-30
2023/04/18 11:11:07;;;;;;;6.90;4.60;;;;;;;;;;107588;277;49232;-30
2023/04/18 11:13:58;;;;;;;5.80;4.30;;;;;;;;;;107611;280;42333;-28
2023/04/18 11:16:34;;;;;;;6.50;4.60;;;;;;;;;;107665;282;39003;-28
2023/04/18 11:19:25;;;;;;;5.70;4.50;;;;;;;;;;107586;282;39790;-30
2023/04/18 11:22:03;;;;;;;7.20;4.90;;;;;;;;;;107629;285;42911;-29
2023/04/18 11:24:40;;;;;;;6.30;4.50;;;;;;;;;;107602;277;42592;-29
2023/04/18 11:27:24;;;;;;;6.70;4.70;;;;;;;;;;107633;282;38827;-29
2023/04/18 11:29:59;;;;;;;6.00;4.60;;;;;;;;;;107587;282;40079;-30
2023/04/18 11:32:35;;;;;;;6.60;4.50;;;;;;;;;;107603;284;42883;-30
2023/04/18 11:35:12;;;;;;;6.10;4.20;;;;;;;;;;107651;284;42187;-30
2023/04/18 11:37:50;;;;;;;6.20;4.50;;;;;;;;;;107623;282;39183;-30
2023/04/18 11:40:27;;;;;;;6.30;4.40;;;;;;;;;;107573;284;39866;-30
2023/04/18 11:43:05;;;;;;;6.00;4.50;;;;;;;;;;107613;282;43091;-30
2023/04/18 11:45:40;;;;;;;6.30;4.70;;;;;;;;;;107596;277;42262;-30
2023/04/18 11:48:15;;;;;;;6.90;4.70;;;;;;;;;;107592;282;38777;-31
2023/04/18 11:50:49;;;;;;;5.90;4.40;;;;;;;;;;107519;284;40384;-31
2023/04/18 11:53:36;;;;;;;6.10;4.60;;;;;;;;;;107571;284;43977;-30
2023/04/18 11:56:16;;;;;;;6.20;4.60;;;;;;;;;;107608;285;42242;-31
2023/04/18 11:58:51;;;;;;;6.50;4.60;;;;;;;;;;107567;277;38825;-31
2023/04/18 12:01:27;;;;;;;5.90;4.20;;;;;;;;;;107575;285;39947;-31
2023/04/18 12:04:08;;;;;;;6.40;4.20;;;;;;;;;;107518;283;175595;-30
2023/04/18 12:06:53;;;;;;;6.30;4.50;;;;;;;;;;107635;277;43014;-30
2023/04/18 12:09:27;;;;;;;6.30;4.50;;;;;;;;;;107639;277;39206;-30
2023/04/18 12:12:02;;;;;;;6.10;4.10;;;;;;;;;;107568;285;39979;-31
2023/04/18 12:14:39;;;;;;;5.90;4.20;;;;;;;;;;107576;277;43029;-31
2023/04/18 12:17:15;;;;;;;5.90;4.20;;;;;;;;;;107642;284;42310;-31
2023/04/18 12:19:52;;;;;;;6.30;5.00;;;;;;;;;;107614;284;38731;-30
2023/04/18 12:22:44;;;;;;;5.80;4.10;;;;;;;;;;107576;284;47063;-29
2023/04/18 12:25:21;;;;;;;;;;;;;;;;;;107646;282;43222;-29
2023/04/18 12:28:02;;;;;;;6.60;4.60;;;;;;;;;;107585;285;41572;-29
2023/04/18 12:30:37;;;;;;;6.30;4.20;;;;;;;;;;107562;284;38825;-29
2023/04/18 12:33:11;;;;;;;5.80;4.40;;;;;;;;;;107608;284;40054;-30
2023/04/18 12:35:45;;;;;;;5.70;4.40;;;;;;;;;;107605;284;43940;-31
2023/04/18 12:38:24;;;;;;;6.20;4.50;;;;;;;;;;107488;282;195353;-31
2023/04/18 12:40:59;;;;;;;6.10;4.40;;;;;;;;;;107598;284;38987;-31
2023/04/18 12:43:33;;;;;;;6.20;4.80;;;;;;;;;;107604;277;39658;-31
2023/04/18 12:46:07;;;;;;;5.60;4.20;;;;;;;;;;107631;277;45062;-31
2023/04/18 12:48:42;;;;;;;5.70;4.30;;;;;;;;;;107620;277;43273;-31
2023/04/18 12:51:16;;;;;;;5.80;4.30;;;;;;;;;;107584;284;38852;-31
2023/04/18 12:53:51;;;;;;;6.00;4.50;;;;;;;;;;107578;277;39785;-31
2023/04/18 12:56:26;;;;;;;5.80;4.40;;;;;;;;;;107591;284;42852;-31
2023/04/18 12:59:00;;;;;;;6.10;4.70;;;;;;;;;;107617;282;42167;-30
2023/04/18 13:01:34;;;;;;;5.90;4.80;;;;;;;;;;107564;277;39202;-30
2023/04/18 13:04:10;;;;;;;5.70;4.40;;;;;;;;;;107601;277;41241;-30
2023/04/18 13:06:47;;;;;;;5.80;4.10;;;;;;;;;;107591;284;44167;-30
2023/04/18 13:09:21;;;;;;;6.20;4.20;;;;;;;;;;107599;284;42113;-31
2023/04/18 13:11:55;;;;;;;6.00;4.30;;;;;;;;;;107599;284;38798;-31
2023/04/18 13:14:30;;;;;;;6.00;4.30;;;;;;;;;;107484;284;175605;-31
2023/04/18 13:17:06;;;;;;;5.90;4.20;;;;;;;;;;107593;277;43047;-30
2023/04/18 13:19:42;;;;;;;6.30;4.70;;;;;;;;;;107639;284;42089;-29
2023/04/18 13:22:17;;;;;;;6.00;4.30;;;;;;;;;;107574;277;39852;-30
2023/04/18 13:24:51;;;;;;;6.10;4.50;;;;;;;;;;107588;282;40939;-29
2023/04/18 13:27:25;;;;;;;6.30;4.40;;;;;;;;;;107573;284;42683;-30
2023/04/18 13:30:00;;;;;;;5.80;4.30;;;;;;;;;;107618;285;41892;-30
2023/04/18 13:32:35;;;;;;;6.00;4.50;;;;;;;;;;107555;277;38850;-31
2023/04/18 13:35:11;;;;;;;5.90;4.20;;;;;;;;;;107622;284;40214;-31
2023/04/18 13:37:46;;;;;;;6.00;4.30;;;;;;;;;;107617;277;44120;-31
2023/04/18 13:40:23;;;;;;;8.10;5.00;;;;;;;;;;107596;284;42564;-30
2023/04/18 13:42:57;;;;;;;6.30;4.60;;;;;;;;;;107574;282;38771;-29
2023/04/18 13:45:31;;;;;;;6.20;4.50;;;;;;;;;;107583;284;39731;-29
2023/04/18 13:48:06;;;;;;;5.80;4.50;;;;;;;;;;107594;285;43179;-29
2023/04/18 13:50:40;;;;;;;5.70;4.30;;;;;;;;;;107519;282;175616;-29
2023/04/18 13:53:15;;;;;;;6.00;4.10;;;;;;;;;;107545;284;38854;-29
2023/04/18 13:55:48;;;;;;;6.10;4.30;;;;;;;;;;107579;284;39739;-29
2023/04/18 13:58:23;;;;;;;6.30;4.30;;;;;;;;;;107582;284;42875;-29
2023/04/18 14:00:58;;;;;;;6.40;4.30;;;;;;;;;;107607;284;43386;-29
2023/04/18 14:03:32;;;;;;;6.10;4.20;;;;;;;;;;107531;285;38869;-29
2023/04/18 14:06:10;;;;;;;5.80;4.50;;;;;;;;;;107610;282;40855;-30
2023/04/18 14:08:44;;;;;;;6.00;4.40;;;;;;;;;;107628;277;42628;-29
2023/04/18 14:11:19;;;;;;;5.90;4.30;;;;;;;;;;107611;282;42484;-29
2023/04/18 14:13:53;;;;;;;6.40;4.20;;;;;;;;;;107588;284;38764;-29
2023/04/18 14:16:29;;;;;;;5.70;4.40;;;;;;;;;;107583;284;40135;-29
2023/04/18 14:19:04;;;;;;;5.80;4.40;;;;;;;;;;107494;284;175665;-29
2023/04/18 14:21:39;;;;;;;5.60;4.30;;;;;;;;;;107606;284;42456;-29
2023/04/18 14:24:13;;;;;;;5.90;4.40;;;;;;;;;;107538;284;38946;-29
2023/04/18 14:26:47;;;;;;;5.50;4.10;;;;;;;;;;107611;284;39672;-29
2023/04/18 14:29:21;;;;;;;6.30;4.10;;;;;;;;;;107604;285;42833;-29
2023/04/18 14:31:54;;;;;;;6.10;4.10;;;;;;;;;;107588;284;42614;-29
2023/04/18 14:34:28;;;;;;;6.10;4.30;;;;;;;;;;107570;277;38815;-29
2023/04/18 14:37:05;;;;;;;5.60;4.00;;;;;;;;;;107577;284;39504;-29
2023/04/18 14:39:40;;;;;;;5.70;4.20;;;;;;;;;;107596;284;43138;-30
2023/04/18 14:42:16;;;;;;;5.80;4.10;;;;;;;;;;107587;284;42223;-30
2023/04/18 14:44:50;;;;;;;5.90;4.00;;;;;;;;;;107567;277;38809;-30
2023/04/18 14:47:29;;;;;;;6.30;4.00;;;;;;;;;;107592;284;39724;-30
2023/04/18 14:50:03;;;;;;;6.60;4.10;;;;;;;;;;107606;284;43007;-30
2023/04/18 14:52:37;;;;;;;5.40;3.80;;;;;;;;;;107587;277;43756;-30
2023/04/18 14:55:12;;;;;;;6.20;4.20;;;;;;;;;;107592;284;38825;-30
2023/04/18 14:57:47;;;;;;;6.20;4.20;;;;;;;;;;107533;286;39758;-30
2023/04/18 15:00:24;;;;;;;5.70;4.10;;;;;;;;;;107603;284;42697;-30
2023/04/18 15:02:57;;;;;;;6.00;4.10;;;;;;;;;;107662;290;43253;-30
2023/04/18 15:05:33;;;;;;;5.70;3.70;;;;;;;;;;107575;284;38796;-30
2023/04/18 15:08:08;;;;;;;5.10;4.00;;;;;;;;;;107607;284;41225;-30
2023/04/18 15:10:43;;;;;;;5.70;4.00;;;;;;;;;;107627;284;43163;-30
2023/04/18 15:13:19;;;;;;;5.80;3.80;;;;;;;;;;107579;284;42173;-30
2023/04/18 15:15:57;;;;;;;5.70;3.90;;;;;;;;;;107572;284;44651;-30
2023/04/18 15:18:31;;;;;;;5.70;3.90;;;;;;;;;;107628;277;39855;-30
2023/04/18 15:21:07;;;;;;;5.90;3.90;;;;;;;;;;107604;284;42878;-30
2023/04/18 15:23:41;;;;;;;6.20;3.60;;;;;;;;;;107613;284;43316;-30
2023/04/18 15:26:15;;;;;;;5.70;3.80;;;;;;;;;;107610;284;39812;-30
2023/04/18 15:28:50;;;;;;;5.50;3.80;;;;;;;;;;107623;281;40099;-30
2023/04/18 15:31:25;;;;;;;6.30;3.80;;;;;;;;;;107626;284;43912;-30
2023/04/18 15:34:01;;;;;;;6.70;3.90;;;;;;;;;;107478;282;175328;-30
2023/04/18 15:36:35;;;;;;;5.40;3.40;;;;;;;;;;107602;284;45961;-30